FW4380 Newport NC US current weather conditions

sailwx.info

Wind from 210 at 0 knots gusting 3

Air temperature 13.3° C
Dewpoint 12.9° C

Last reported at 2020-Jan-25 14:04 UTC.
Time now 2020-Jan-25 14:25 UTC

Location: N 34°47' W 076°44'.
View on Google Maps.

See reports from other nearby stations

  
Tides and Currents Weather Stations Pressure Air Temp Water Temp Dewpoint Dewpoint Depression Visibility Wind Speed Wind Dir Waves Ship Positions
date/time (UTC)wind fromknots sea level pressurealtimeterstation pressurevisibilityair tempwater tempwave heightnotes
2020-Jan-25 14:04 210 0 gusting 3 13.3
2020-Jan-25 13:59 201 0 gusting 1 12.8
2020-Jan-25 13:49 201 1 gusting 4 13.3
2020-Jan-25 13:44 204 2 gusting 4 13.3
2020-Jan-25 13:39 201 2 gusting 3 13.3
2020-Jan-25 13:34 200 2 gusting 4 13.3
2020-Jan-25 13:29 201 4 gusting 6 13.3
2020-Jan-25 13:24 207 5 gusting 6 13.3
2020-Jan-25 13:19 222 4 gusting 6 13.3
2020-Jan-25 13:14 203 4 gusting 6 13.3
2020-Jan-25 13:09 205 4 gusting 6 13.3
2020-Jan-25 13:04 203 4 gusting 5 13.3
2020-Jan-25 12:59 199 4 gusting 6 13.3
2020-Jan-25 12:54 199 5 gusting 6 13.3
2020-Jan-25 12:49 201 5 gusting 6 13.3
2020-Jan-25 12:44 212 5 gusting 6 13.3
2020-Jan-25 12:39 196 5 gusting 6 13.3
2020-Jan-25 12:34 225 5 gusting 6 13.9
2020-Jan-25 12:29 228 6 gusting 7 13.9
2020-Jan-25 12:24 218 6 gusting 9 13.9
2020-Jan-25 12:19 205 6 gusting 9 14.4
2020-Jan-25 12:14 214 6 gusting 9 15.0
2020-Jan-25 12:09 222 6 gusting 8 15.0
2020-Jan-25 12:04 226 6 gusting 8 15.0
2020-Jan-25 11:59 228 6 gusting 10 15.0
2020-Jan-25 11:54 253 9 gusting 13 15.0
2020-Jan-25 11:49 218 9 gusting 13 15.6
2020-Jan-25 11:44 222 7 gusting 13 15.0
2020-Jan-25 11:39 244 6 gusting 9 15.0
2020-Jan-25 11:34 227 8 gusting 14 15.6
2020-Jan-25 11:29 220 10 gusting 16 15.6
2020-Jan-25 11:24 222 10 gusting 16 16.1
2020-Jan-25 11:19 182 11 gusting 18 15.6
2020-Jan-25 11:14 177 11 gusting 18 16.1
2020-Jan-25 11:09 155 11 gusting 15 15.6
2020-Jan-25 11:04 172 12 gusting 19 15.6
2020-Jan-25 10:59 165 13 gusting 19 15.6
2020-Jan-25 10:54 186 12 gusting 19 15.6
2020-Jan-25 10:49 166 12 gusting 17 15.6
2020-Jan-25 10:44 185 12 gusting 18 15.6
2020-Jan-25 10:39 166 11 gusting 18 15.6
2020-Jan-25 10:34 160 8 gusting 14 16.1
2020-Jan-25 10:29 174 8 gusting 15 16.1
2020-Jan-25 10:24 173 9 gusting 15 16.1
2020-Jan-25 10:19 185 10 gusting 17 16.7
2020-Jan-25 10:14 189 11 gusting 17 16.1
2020-Jan-25 10:09 179 12 gusting 18 16.7
2020-Jan-25 10:03 172 12 gusting 18 16.7
2020-Jan-25 09:58 167 12 gusting 18 16.7
2020-Jan-25 09:53 172 11 gusting 18 16.7
2020-Jan-25 09:48 147 10 gusting 17 16.7
2020-Jan-25 09:43 172 10 gusting 17 17.2
2020-Jan-25 09:38 155 10 gusting 15 17.2
2020-Jan-25 09:33 164 11 gusting 15 17.2
2020-Jan-25 09:28 142 12 gusting 19 17.2
2020-Jan-25 09:23 161 12 gusting 19 17.2
2020-Jan-25 09:18 150 12 gusting 17 16.7
2020-Jan-25 09:13 161 12 gusting 16 16.7
2020-Jan-25 09:08 145 12 gusting 18 16.7
2020-Jan-25 09:03 153 13 gusting 18 16.7
2020-Jan-25 08:58 153 13 gusting 17 16.7
2020-Jan-25 08:53 155 13 gusting 19 16.7
2020-Jan-25 08:48 145 13 gusting 19 16.7
2020-Jan-25 08:43 141 13 gusting 18 16.7
2020-Jan-25 08:38 144 11 gusting 18 16.7
2020-Jan-25 08:33 162 9 gusting 15 16.1
2020-Jan-25 08:28 166 10 gusting 17 16.1
2020-Jan-25 08:23 151 11 gusting 18 16.1
2020-Jan-25 08:18 141 10 gusting 18 16.1
2020-Jan-25 08:13 154 9 gusting 16 16.7
2020-Jan-25 08:08 147 10 gusting 16 16.7
2020-Jan-25 08:03 151 11 gusting 15 16.7
2020-Jan-25 07:58 145 10 gusting 19 16.7
2020-Jan-25 07:53 152 10 gusting 19 16.7
2020-Jan-25 07:48 170 10 gusting 18 16.7
2020-Jan-25 07:43 152 11 gusting 17 16.7
2020-Jan-25 07:38 160 13 gusting 20 16.7
2020-Jan-25 07:33 146 13 gusting 20 16.7
2020-Jan-25 07:28 148 13 gusting 19 17.2
2020-Jan-25 07:23 149 13 gusting 19 16.7
2020-Jan-25 07:18 128 14 gusting 20 16.7
2020-Jan-25 07:13 139 13 gusting 20 17.2
2020-Jan-25 07:08 151 12 gusting 18 16.7
2020-Jan-25 06:58 143 9 gusting 12 16.7
2020-Jan-25 06:53 133 8 gusting 16 16.7
2020-Jan-25 06:48 137 10 gusting 16 16.7
2020-Jan-25 06:43 133 11 gusting 16 16.7
2020-Jan-25 06:38 134 10 gusting 16 16.1
2020-Jan-25 06:33 140 9 gusting 12 16.1
2020-Jan-25 06:28 133 9 gusting 13 15.6
2020-Jan-25 06:23 128 9 gusting 13 15.6
2020-Jan-25 06:18 121 7 gusting 13 15.6
2020-Jan-25 06:13 125 8 gusting 11 15.6
2020-Jan-25 06:08 135 9 gusting 12 16.1
2020-Jan-25 06:03 144 9 gusting 15 16.1
2020-Jan-25 05:58 139 11 gusting 15 16.7
2020-Jan-25 05:53 137 12 gusting 18 16.7
2020-Jan-25 05:48 148 13 gusting 18 16.7
2020-Jan-25 05:43 140 12 gusting 16 16.7
2020-Jan-25 05:38 135 12 gusting 19 16.7
2020-Jan-25 05:33 133 13 gusting 19 16.7
2020-Jan-25 05:28 134 13 gusting 18 16.7
2020-Jan-25 05:23 139 12 gusting 17 16.7
2020-Jan-25 05:18 145 10 gusting 17 16.7
2020-Jan-25 05:13 145 9 gusting 13 16.7
2020-Jan-25 05:08 138 9 gusting 13 16.7
2020-Jan-25 05:03 147 9 gusting 13 16.7
2020-Jan-25 04:58 141 9 gusting 13 16.7
2020-Jan-25 04:53 152 8 gusting 12 17.2
2020-Jan-25 04:48 156 10 gusting 15 16.7
2020-Jan-25 04:43 147 12 gusting 15 16.7
2020-Jan-25 04:38 138 13 gusting 15 16.7
2020-Jan-25 04:33 132 12 gusting 15 16.7
2020-Jan-25 04:28 133 12 gusting 15 16.7
2020-Jan-25 04:23 138 11 gusting 15 16.1
2020-Jan-25 04:18 135 10 gusting 13 15.6
2020-Jan-25 04:13 128 11 gusting 14 15.6
2020-Jan-25 04:08 128 12 gusting 15 15.6
2020-Jan-25 04:03 123 13 gusting 17 15.6
2020-Jan-25 03:58 135 12 gusting 17 16.1
2020-Jan-25 03:53 137 10 gusting 15 15.6
2020-Jan-25 03:48 134 10 gusting 14 15.0
2020-Jan-25 03:43 124 12 gusting 15 15.0
2020-Jan-25 03:38 124 13 gusting 18 15.6
2020-Jan-25 03:33 130 12 gusting 18 16.1
2020-Jan-25 03:28 130 12 gusting 17 16.7
2020-Jan-25 03:23 134 13 gusting 17 16.7
2020-Jan-25 03:18 133 12 gusting 17 16.1
2020-Jan-25 03:13 124 12 gusting 14 15.6
2020-Jan-25 03:08 137 11 gusting 14 15.6
2020-Jan-25 03:03 128 8 gusting 14 15.0
2020-Jan-25 02:58 127 8 gusting 10 14.4
2020-Jan-25 02:53 116 7 gusting 11 14.4
2020-Jan-25 02:47 121 8 gusting 11 14.4
2020-Jan-25 02:42 126 9 gusting 12 15.0
2020-Jan-25 02:38 125 9 gusting 12 15.6
2020-Jan-25 02:32 126 7 gusting 11 15.6
2020-Jan-25 02:27 140 7 gusting 10 15.0
2020-Jan-25 02:22 133 8 gusting 11 15.0
2020-Jan-25 02:17 120 9 gusting 12 15.0
2020-Jan-25 02:12 122 8 gusting 12 15.0
2020-Jan-25 02:07 126 7 gusting 10 15.0
2020-Jan-25 02:02 119 7 gusting 10 14.4
2020-Jan-25 01:52 122 7 gusting 9 14.4
2020-Jan-25 01:47 125 7 gusting 9 14.4
2020-Jan-25 01:42 122 7 gusting 9 14.4
2020-Jan-25 01:37 122 6 gusting 9 14.4
2020-Jan-25 01:32 123 6 gusting 8 14.4
2020-Jan-25 01:27 114 6 gusting 8 14.4
2020-Jan-25 01:22 119 6 gusting 7 14.4
2020-Jan-25 01:17 119 6 gusting 8 14.4
2020-Jan-25 01:12 130 6 gusting 9 13.9
2020-Jan-25 01:07 122 7 gusting 9 14.4
2020-Jan-25 01:02 122 7 gusting 9 14.4
2020-Jan-25 00:57 118 6 gusting 8 13.9
2020-Jan-25 00:52 119 4 gusting 6 13.3
2020-Jan-25 00:47 108 4 gusting 6 13.3
2020-Jan-25 00:42 108 4 gusting 6 13.3
2020-Jan-25 00:37 097 4 gusting 6 13.9
2020-Jan-25 00:32 092 3 gusting 6 13.9
2020-Jan-25 00:30 126 4 gusting 7 14.4
2020-Jan-25 00:22 088 5 gusting 7 15.0
2020-Jan-25 00:17 071 3 gusting 6 15.0
2020-Jan-25 00:12 080 2 gusting 6 15.6
2020-Jan-25 00:07 064 2 gusting 4 15.6
2020-Jan-25 00:02 064 2 gusting 4 15.6
2020-Jan-24 23:57 061 2 gusting 5 15.6
2020-Jan-24 23:52 062 2 gusting 5 15.6
2020-Jan-24 23:47 068 2 gusting 4 15.6
2020-Jan-24 23:42 066 1 gusting 4 15.6
2020-Jan-24 23:37 062 2 gusting 4 15.6
2020-Jan-24 23:32 053 2 gusting 4 15.6
2020-Jan-24 23:27 047 2 gusting 4 15.6
2020-Jan-24 23:22 057 2 gusting 4 15.6
2020-Jan-24 23:17 056 2 gusting 6 15.6
2020-Jan-24 23:12 047 2 gusting 6 15.6
2020-Jan-24 23:07 048 2 gusting 6 15.6
2020-Jan-24 23:02 060 3 gusting 6 15.6
2020-Jan-24 22:57 051 3 gusting 6 16.1
2020-Jan-24 22:52 064 3 gusting 6 16.1
2020-Jan-24 22:47 060 4 gusting 6 16.1
2020-Jan-24 22:42 062 3 gusting 6 16.1
2020-Jan-24 22:37 062 2 gusting 5 16.1
2020-Jan-24 22:32 068 2 gusting 6 16.1
2020-Jan-24 22:27 071 3 gusting 6 15.6
2020-Jan-24 22:22 066 3 gusting 6 15.6
2020-Jan-24 22:17 064 3 gusting 6 15.6
2020-Jan-24 22:12 072 3 gusting 6 15.6
2020-Jan-24 22:07 078 3 gusting 6 15.0
2020-Jan-24 22:02 078 4 gusting 6 15.0
2020-Jan-24 21:57 082 5 gusting 7 15.0
2020-Jan-24 21:52 089 5 gusting 7 15.0
2020-Jan-24 21:46 086 6 gusting 8 15.0
2020-Jan-24 21:41 087 6 gusting 8 15.0
2020-Jan-24 21:36 087 6 gusting 8 15.0
2020-Jan-24 21:31 096 6 gusting 9 15.0
2020-Jan-24 21:26 103 6 gusting 9 15.0
2020-Jan-24 21:22 103 6 gusting 8 14.4
2020-Jan-24 21:16 106 6 gusting 7 15.0
2020-Jan-24 21:11 108 6 gusting 9 15.6
2020-Jan-24 21:06 095 6 gusting 9 15.6
2020-Jan-24 21:01 107 6 gusting 8 15.6
2020-Jan-24 20:56 096 6 gusting 9 15.6
2020-Jan-24 20:51 092 6 gusting 9 16.1
2020-Jan-24 20:46 098 7 gusting 8 16.1
2020-Jan-24 20:41 093 7 gusting 9 16.1
2020-Jan-24 20:36 099 6 gusting 9 16.7
2020-Jan-24 20:31 097 6 gusting 9 16.7
2020-Jan-24 20:26 089 6 gusting 8 16.7
2020-Jan-24 20:21 086 6 gusting 8 16.7
2020-Jan-24 20:16 093 6 gusting 9 16.7
2020-Jan-24 20:11 087 6 gusting 9 17.2
2020-Jan-24 20:06 092 6 gusting 9 17.2
2020-Jan-24 20:01 083 6 gusting 9 17.2
2020-Jan-24 19:56 075 5 gusting 9 17.2
2020-Jan-24 19:51 081 5 gusting 7 17.2
2020-Jan-24 19:46 097 4 gusting 6 17.2
2020-Jan-24 19:41 080 4 gusting 6 17.8
2020-Jan-24 19:36 098 4 gusting 7 17.8
2020-Jan-24 19:31 089 4 gusting 7 17.8
2020-Jan-24 19:26 092 5 gusting 7 17.8
2020-Jan-24 19:21 073 6 gusting 7 17.2
2020-Jan-24 19:16 078 6 gusting 8 17.2
2020-Jan-24 19:11 089 6 gusting 8 16.7
2020-Jan-24 19:06 083 6 gusting 8 16.1
2020-Jan-24 19:01 097 5 gusting 7 16.1
2020-Jan-24 18:56 097 5 gusting 6 16.1
2020-Jan-24 18:51 090 5 gusting 6 16.7
2020-Jan-24 18:46 089 5 gusting 7 16.7
2020-Jan-24 18:41 074 5 gusting 7 16.1
2020-Jan-24 18:36 086 6 gusting 7 16.1
2020-Jan-24 18:31 095 6 gusting 8 16.7
2020-Jan-24 18:26 089 6 gusting 8 16.7
2020-Jan-24 18:21 088 6 gusting 9 16.7
2020-Jan-24 18:16 074 7 gusting 10 16.7
2020-Jan-24 18:11 068 7 gusting 11 17.2
2020-Jan-24 18:06 087 6 gusting 11 16.7
2020-Jan-24 18:01 079 6 gusting 10 16.7
2020-Jan-24 17:56 082 6 gusting 10 16.1
2020-Jan-24 17:51 087 5 gusting 8 15.6
2020-Jan-24 17:46 095 4 gusting 6 15.0
2020-Jan-24 17:41 104 4 gusting 6 15.0
2020-Jan-24 17:36 105 5 gusting 7 15.6
2020-Jan-24 17:31 103 5 gusting 7 15.6
2020-Jan-24 17:26 092 5 gusting 7 16.7
2020-Jan-24 17:21 091 5 gusting 7 17.2
2020-Jan-24 17:16 086 5 gusting 8 17.8
2020-Jan-24 17:11 100 4 gusting 8 17.8
2020-Jan-24 17:06 063 3 gusting 6 17.8
2020-Jan-24 17:01 078 3 gusting 6 17.2
2020-Jan-24 16:56 078 4 gusting 7 16.1
2020-Jan-24 16:51 083 5 gusting 7 15.6
2020-Jan-24 16:46 083 5 gusting 7 15.0
2020-Jan-24 16:41 080 5 gusting 7 15.6
2020-Jan-24 16:36 089 4 gusting 6 15.6
2020-Jan-24 16:31 096 4 gusting 6 16.1
2020-Jan-24 16:26 087 4 gusting 6 17.2
2020-Jan-24 16:21 089 4 gusting 6 17.2
2020-Jan-24 16:16 085 3 gusting 6 17.2
2020-Jan-24 16:11 080 2 gusting 5 17.2
2020-Jan-24 16:06 076 3 gusting 6 17.2
2020-Jan-24 16:01 018 3 gusting 6 17.2
2020-Jan-24 15:56 023 3 gusting 6 17.2
2020-Jan-24 15:51 039 3 gusting 6 16.7
2020-Jan-24 15:46 018 3 gusting 5 16.1
2020-Jan-24 15:41 009 3 gusting 5 16.1
2020-Jan-24 15:36 046 2 gusting 5 15.6
2020-Jan-24 15:31 021 2 gusting 5 15.6
2020-Jan-24 15:26 026 3 gusting 6 15.0
2020-Jan-24 15:21 038 3 gusting 6 15.0
2020-Jan-24 15:16 029 3 gusting 5 15.0
2020-Jan-24 15:11 007 2 gusting 4 14.4
2020-Jan-24 15:06 018 3 gusting 5 14.4
2020-Jan-24 15:01 016 3 gusting 5 14.4
2020-Jan-24 14:56 345 3 gusting 5 14.4
2020-Jan-24 14:51 011 2 gusting 5 14.4
2020-Jan-24 14:45 004 1 gusting 4 13.9
2020-Jan-24 14:40 002 1 gusting 5 13.9
2020-Jan-24 14:35 022 2 gusting 5 13.9
2020-Jan-24 14:30 011 3 gusting 6 13.3
2020-Jan-24 14:25 001 3 gusting 6 13.3
2020-Jan-24 14:20 018 3 gusting 6 13.3
2020-Jan-24 14:15 016 4 gusting 6 12.8
2020-Jan-24 14:10 025 3 gusting 6 12.2
2020-Jan-24 14:05 064 3 gusting 6 12.2
2020-Jan-24 14:00 029 3 gusting 6 11.7
2020-Jan-24 13:55 050 2 gusting 4 11.7
2020-Jan-24 13:50 010 3 gusting 5 11.7
2020-Jan-24 13:45 022 4 gusting 7 11.1
2020-Jan-24 13:40 335 4 gusting 7 11.1
2020-Jan-24 13:35 020 4 gusting 6 11.1
2020-Jan-24 13:30 002 5 gusting 7 10.6
2020-Jan-24 13:25 002 4 gusting 7 10.6
2020-Jan-24 13:20 340 4 gusting 7 10.6
2020-Jan-24 13:15 020 3 gusting 7 10.6
2020-Jan-24 13:10 011 3 gusting 6 10.6
2020-Jan-24 13:05 340 3 gusting 6 10.6
2020-Jan-24 13:00 004 3 gusting 6 10.0
2020-Jan-24 12:55 345 3 gusting 6 10.0
2020-Jan-24 12:50 003 2 gusting 6 9.4
2020-Jan-24 12:45 041 1 gusting 3 9.4
2020-Jan-24 12:40 089 1 gusting 2 10.0
2020-Jan-24 12:35 014 1 gusting 2 10.0
2020-Jan-24 12:30 325 1 gusting 2 10.0
2020-Jan-24 12:25 008 0 gusting 2 9.4
2020-Jan-24 12:20 009 0 gusting 2 9.4
2020-Jan-24 12:15 018 0 gusting 2 9.4
2020-Jan-24 12:10 018 1 gusting 2 9.4
2020-Jan-24 12:05 322 1 gusting 2 9.4
2020-Jan-24 12:00 318 0 gusting 2 10.0
2020-Jan-24 11:55 318 0 gusting 2 10.0
2020-Jan-24 11:50 002 9.4
2020-Jan-24 11:45 002 0 gusting 2 9.4
2020-Jan-24 11:40 003 0 gusting 2 9.4
2020-Jan-24 11:35 003 0 gusting 2 9.4
2020-Jan-24 11:25 008 1 gusting 3 9.4
2020-Jan-24 11:20 020 1 gusting 4 9.4
2020-Jan-24 11:15 349 2 gusting 5 10.0
2020-Jan-24 11:10 003 2 gusting 5 10.0
2020-Jan-24 11:05 019 2 gusting 5 10.0
2020-Jan-24 11:00 002 3 gusting 5 10.0
2020-Jan-24 10:55 003 2 gusting 5 10.0
2020-Jan-24 10:50 002 3 gusting 6 10.0
2020-Jan-24 10:45 318 4 gusting 6 10.0
2020-Jan-24 10:40 006 4 gusting 6 10.0
2020-Jan-24 10:35 009 4 gusting 6 10.0
2020-Jan-24 10:30 001 3 gusting 6 10.0
2020-Jan-24 10:24 012 3 gusting 6 10.0
2020-Jan-24 10:19 345 2 gusting 5 10.0
2020-Jan-24 10:14 328 2 gusting 5 10.0
2020-Jan-24 10:09 002 2 gusting 4 9.4
2020-Jan-24 10:04 001 2 gusting 4 9.4
2020-Jan-24 09:59 001 1 gusting 4 9.4
2020-Jan-24 09:54 330 0 gusting 3 9.4
2020-Jan-24 09:49 9.4
2020-Jan-24 09:44 328 1 gusting 4 9.4
2020-Jan-24 09:39 004 2 gusting 5 9.4
2020-Jan-24 09:34 006 2 gusting 5 9.4
2020-Jan-24 09:29 345 2 gusting 5 9.4
2020-Jan-24 09:24 340 2 gusting 5 9.4
2020-Jan-24 09:19 005 2 gusting 5 9.4
2020-Jan-24 09:14 345 2 gusting 6 9.4
2020-Jan-24 09:09 345 3 gusting 6 9.4
2020-Jan-24 09:04 010 2 gusting 4 9.4
2020-Jan-24 08:59 008 1 gusting 4 9.4
2020-Jan-24 08:54 9.4
2020-Jan-24 08:49 002 3 gusting 6 9.4
2020-Jan-24 08:44 335 3 gusting 6 9.4
2020-Jan-24 08:39 335 4 gusting 6 9.4
2020-Jan-24 08:34 340 3 gusting 6 9.4
2020-Jan-24 08:29 004 3 gusting 6 9.4
2020-Jan-24 08:24 023 2 gusting 6 9.4
2020-Jan-24 08:19 008 2 gusting 4 9.4
2020-Jan-24 08:14 013 1 gusting 4 9.4
2020-Jan-24 08:09 004 2 gusting 4 9.4
2020-Jan-24 08:04 016 2 gusting 6 9.4
2020-Jan-24 07:59 345 2 gusting 6 9.4
2020-Jan-24 07:54 001 2 gusting 6 9.4
2020-Jan-24 07:49 345 3 gusting 6 9.4
2020-Jan-24 07:44 322 4 gusting 6 9.4
2020-Jan-24 07:39 020 4 gusting 8 9.4
2020-Jan-24 07:34 005 4 gusting 8 9.4
2020-Jan-24 07:29 005 3 gusting 7 9.4
2020-Jan-24 07:24 340 3 gusting 6 9.4
2020-Jan-24 07:19 036 3 gusting 8 9.4
2020-Jan-24 07:14 004 3 gusting 8 9.4
2020-Jan-24 07:09 335 3 gusting 6 9.4
2020-Jan-24 07:04 005 3 gusting 6 9.4
2020-Jan-24 06:59 345 3 gusting 6 10.0
2020-Jan-24 06:54 003 3 gusting 6 10.0
2020-Jan-24 06:49 006 3 gusting 6 10.0
2020-Jan-24 06:44 007 3 gusting 6 10.0
2020-Jan-24 06:39 312 3 gusting 7 10.0
2020-Jan-24 06:34 324 3 gusting 7 9.4
2020-Jan-24 06:29 024 3 gusting 6 9.4
2020-Jan-24 06:24 335 3 gusting 7 9.4
2020-Jan-24 06:19 012 3 gusting 7 9.4
2020-Jan-24 06:14 301 3 gusting 6 9.4
2020-Jan-24 06:09 005 3 gusting 6 9.4
2020-Jan-24 06:04 323 3 gusting 6 9.4
2020-Jan-24 05:59 349 3 gusting 6 9.4
2020-Jan-24 05:54 007 3 gusting 5 9.4
2020-Jan-24 05:49 009 3 gusting 5 9.4
2020-Jan-24 05:44 013 2 gusting 5 9.4
2020-Jan-24 05:39 008 1 gusting 4 10.0
2020-Jan-24 05:34 020 2 gusting 5 10.0
2020-Jan-24 05:29 030 2 gusting 5 10.0
2020-Jan-24 05:24 001 1 gusting 4 10.0
2020-Jan-24 05:19 005 1 gusting 3 10.0
2020-Jan-24 05:14 328 1 gusting 3 10.0
2020-Jan-24 05:09 327 1 gusting 3 10.0
2020-Jan-24 05:04 007 1 gusting 4 10.0
2020-Jan-24 04:59 008 1 gusting 4 10.0
2020-Jan-24 04:54 003 2 gusting 6 10.0
2020-Jan-24 04:49 018 2 gusting 6 10.0
2020-Jan-24 04:44 001 3 gusting 6 10.0
2020-Jan-24 04:39 322 4 gusting 6 10.0
2020-Jan-24 04:34 005 3 gusting 6 10.0
2020-Jan-24 04:29 004 3 gusting 6 10.0
2020-Jan-24 04:24 006 3 gusting 6 10.0
2020-Jan-24 04:19 340 3 gusting 6 10.0
2020-Jan-24 04:14 029 3 gusting 6 10.0
2020-Jan-24 04:09 002 3 gusting 6 10.0
2020-Jan-24 04:04 003 3 gusting 7 10.0
2020-Jan-24 03:59 340 4 gusting 7 10.0
2020-Jan-24 03:54 006 3 gusting 7 10.0
2020-Jan-24 03:49 003 3 gusting 6 10.0
2020-Jan-24 03:44 322 2 gusting 7 10.0
2020-Jan-24 03:39 003 2 gusting 7 10.0
2020-Jan-24 03:34 013 2 gusting 5 10.0
2020-Jan-24 03:29 001 3 gusting 6 10.0
2020-Jan-24 03:23 328 3 gusting 6 10.0
2020-Jan-24 03:13 010 3 gusting 6 10.0
2020-Jan-24 03:08 331 3 gusting 6 10.0
2020-Jan-24 03:04 002 2 gusting 5 10.0
2020-Jan-24 02:58 011 3 gusting 6 10.0
2020-Jan-24 02:53 345 3 gusting 6 10.0
2020-Jan-24 02:48 008 2 gusting 6 10.0
2020-Jan-24 02:43 10.0
2020-Jan-24 02:38 010 4 gusting 7 10.0
2020-Jan-24 02:33 007 4 gusting 7 10.0
2020-Jan-24 02:28 022 4 gusting 8 10.6
2020-Jan-24 02:23 008 5 gusting 8 10.6
2020-Jan-24 02:18 014 4 gusting 7 10.6
2020-Jan-24 02:13 012 3 gusting 6 10.6
2020-Jan-24 02:08 036 3 gusting 7 10.6
2020-Jan-24 02:03 025 3 gusting 7 10.6
2020-Jan-24 01:58 017 4 gusting 7 10.6
2020-Jan-24 01:53 330 4 gusting 7 10.6
2020-Jan-24 01:48 009 4 gusting 10 10.6
2020-Jan-24 01:43 006 5 gusting 10 10.6
2020-Jan-24 01:38 003 5 gusting 9 10.6
2020-Jan-24 01:33 038 4 gusting 8 10.6
2020-Jan-24 01:28 009 4 gusting 8 10.6
2020-Jan-24 01:23 002 3 gusting 6 10.6
2020-Jan-24 01:18 010 3 gusting 7 10.6
2020-Jan-24 01:13 004 4 gusting 7 10.6
2020-Jan-24 01:08 016 4 gusting 6 11.1
2020-Jan-24 01:03 335 4 gusting 6 11.1
2020-Jan-24 00:58 020 5 gusting 10 11.1
2020-Jan-24 00:53 019 5 gusting 10 11.1
2020-Jan-24 00:48 010 5 gusting 10 11.1
2020-Jan-24 00:43 022 5 gusting 9 11.1
2020-Jan-24 00:38 025 5 gusting 9 11.1
2020-Jan-24 00:33 037 5 gusting 9 11.1
2020-Jan-24 00:28 016 5 gusting 12 11.1
2020-Jan-24 00:23 024 5 gusting 12 11.1
2020-Jan-24 00:18 345 5 gusting 11 11.1
2020-Jan-24 00:13 006 5 gusting 9 11.7
2020-Jan-24 00:08 030 5 gusting 9 11.7
2020-Jan-24 00:03 024 4 gusting 9 11.7
2020-Jan-23 23:58 024 5 gusting 10 11.7
2020-Jan-23 23:53 004 5 gusting 10 11.7
2020-Jan-23 23:48 026 5 gusting 9 11.7
2020-Jan-23 23:43 340 5 gusting 9 11.7
2020-Jan-23 23:38 018 4 gusting 7 11.7
2020-Jan-23 23:33 009 4 gusting 8 12.2
2020-Jan-23 23:28 019 5 gusting 8 12.2
2020-Jan-23 23:23 345 5 gusting 11 12.2
2020-Jan-23 23:18 009 5 gusting 11 12.2
2020-Jan-23 23:13 010 6 gusting 10 12.2
2020-Jan-23 23:08 006 6 gusting 12 12.8
2020-Jan-23 23:03 004 6 gusting 12 12.8
2020-Jan-23 22:58 345 6 gusting 10 12.8
2020-Jan-23 22:53 340 6 gusting 10 12.8
2020-Jan-23 22:48 001 6 gusting 10 12.8
2020-Jan-23 22:43 030 6 gusting 11 12.8
2020-Jan-23 22:38 002 5 gusting 11 13.3
2020-Jan-23 22:33 042 5 gusting 9 13.3
2020-Jan-23 22:28 016 5 gusting 9 13.3
2020-Jan-23 22:23 020 4 gusting 9 13.3
2020-Jan-23 22:18 029 4 gusting 9 13.3
2020-Jan-23 22:13 001 3 gusting 6 13.3
2020-Jan-23 22:08 014 4 gusting 7 13.3
2020-Jan-23 22:03 005 3 gusting 7 13.3
2020-Jan-23 21:58 335 3 gusting 7 13.3
2020-Jan-23 21:53 330 2 gusting 7 13.3
2020-Jan-23 21:48 004 2 gusting 5 13.3
2020-Jan-23 21:43 340 2 gusting 5 13.3
2020-Jan-23 21:38 004 3 gusting 6 13.3
2020-Jan-23 21:33 011 4 gusting 7 13.3
2020-Jan-23 21:28 005 3 gusting 7 13.3
2020-Jan-23 21:23 340 3 gusting 7 13.3
2020-Jan-23 21:18 002 2 gusting 6 13.9
2020-Jan-23 21:13 024 2 gusting 6 13.9
2020-Jan-23 21:08 328 2 gusting 6 13.9
2020-Jan-23 21:03 345 2 gusting 6 13.9
2020-Jan-23 20:58 345 2 gusting 5 13.3
2020-Jan-23 20:53 329 3 gusting 5 13.3
2020-Jan-23 20:48 022 3 gusting 7 13.3
2020-Jan-23 20:43 044 4 gusting 7 13.3
2020-Jan-23 20:38 017 4 gusting 7 13.3
2020-Jan-23 20:33 020 5 gusting 9 13.3
2020-Jan-23 20:27 345 5 gusting 9 13.3
2020-Jan-23 20:22 001 4 gusting 9 13.3
2020-Jan-23 20:17 015 4 gusting 9 13.3
2020-Jan-23 20:12 323 4 gusting 9 13.3
2020-Jan-23 20:07 335 4 gusting 7 13.3
2020-Jan-23 20:02 010 5 gusting 8 13.3
2020-Jan-23 19:57 345 6 gusting 10 13.3
2020-Jan-23 19:52 340 6 gusting 10 13.3
2020-Jan-23 19:47 044 5 gusting 9 13.3
2020-Jan-23 19:42 002 4 gusting 9 13.3
2020-Jan-23 19:37 025 5 gusting 10 13.9
2020-Jan-23 19:32 003 5 gusting 10 13.9
2020-Jan-23 19:27 015 5 gusting 10 13.9
2020-Jan-23 19:22 003 5 gusting 10 13.9
2020-Jan-23 19:17 022 6 gusting 10 13.9
2020-Jan-23 19:12 025 6 gusting 12 13.9
2020-Jan-23 19:07 014 6 gusting 12 13.3
2020-Jan-23 19:02 037 6 gusting 11 13.3
2020-Jan-23 18:57 034 6 gusting 11 13.9
2020-Jan-23 18:52 345 6 gusting 11 13.9
2020-Jan-23 18:47 012 6 gusting 11 13.9
2020-Jan-23 18:42 001 6 gusting 13 13.9
2020-Jan-23 18:37 026 6 gusting 13 13.9
2020-Jan-23 18:32 020 6 gusting 13 13.9
2020-Jan-23 18:27 032 7 gusting 13 13.9
2020-Jan-23 18:22 060 7 gusting 13 13.9
2020-Jan-23 18:17 031 7 gusting 13 13.9
2020-Jan-23 18:12 029 7 gusting 13 13.3
2020-Jan-23 18:07 340 8 gusting 13 13.3
2020-Jan-23 18:02 027 7 gusting 13 13.3
2020-Jan-23 17:57 026 7 gusting 13 13.3
2020-Jan-23 17:52 053 7 gusting 15 13.3
2020-Jan-23 17:47 037 7 gusting 15 13.3
2020-Jan-23 17:42 029 7 gusting 13 13.3
2020-Jan-23 17:37 015 6 gusting 12 13.3
2020-Jan-23 17:32 009 6 gusting 12 13.3
2020-Jan-23 17:27 037 6 gusting 11 13.3
2020-Jan-23 17:22 047 7 gusting 17 12.8
2020-Jan-23 17:17 014 7 gusting 17 12.8
2020-Jan-23 17:12 018 7 gusting 12 12.8
2020-Jan-23 17:07 012 6 gusting 13 12.8
2020-Jan-23 17:02 035 6 gusting 13 12.8
2020-Jan-23 16:57 345 6 gusting 13 12.8
2020-Jan-23 16:52 016 7 gusting 13 12.8
2020-Jan-23 16:47 012 7 gusting 13 12.2
2020-Jan-23 16:42 030 7 gusting 13 12.2
2020-Jan-23 16:37 026 7 gusting 13 12.2
2020-Jan-23 16:32 003 6 gusting 13 11.7
2020-Jan-23 16:27 037 6 gusting 12 11.7
2020-Jan-23 16:22 019 6 gusting 12 11.7
2020-Jan-23 16:17 034 6 gusting 11 11.7
2020-Jan-23 16:12 007 6 gusting 11 11.1
2020-Jan-23 16:07 003 6 gusting 10 11.1
2020-Jan-23 16:02 010 5 gusting 10 10.6
2020-Jan-23 15:57 021 5 gusting 11 10.6
2020-Jan-23 15:52 019 5 gusting 11 10.0
2020-Jan-23 15:47 328 6 gusting 10 10.0
2020-Jan-23 15:42 005 6 gusting 12 10.0
2020-Jan-23 15:37 006 6 gusting 12 10.0
2020-Jan-23 15:32 003 5 gusting 12 9.4
2020-Jan-23 15:27 026 4 gusting 9 9.4
2020-Jan-23 15:22 345 5 gusting 9 9.4
2020-Jan-23 15:17 010 5 gusting 9 9.4
2020-Jan-23 15:12 003 5 gusting 9 9.4
2020-Jan-23 15:07 314 5 gusting 9 8.9
2020-Jan-23 15:02 016 5 gusting 8 8.9
2020-Jan-23 14:56 007 5 gusting 9 8.9
2020-Jan-23 14:51 003 5 gusting 10 8.9
2020-Jan-23 14:46 043 5 gusting 11 8.3
2020-Jan-23 14:41 004 6 gusting 11 8.3
2020-Jan-23 14:36 002 6 gusting 11 8.3
2020-Jan-23 14:31 331 6 gusting 13 8.3
2020-Jan-23 14:26 001 6 gusting 13 7.8
2020-Jan-23 14:21 025 6 gusting 12 7.8
2020-Jan-23 14:16 318 6 gusting 11 7.8
2020-Jan-23 14:11 010 6 gusting 11 7.8
2020-Jan-23 14:06 014 6 gusting 12 7.2
2020-Jan-23 14:01 345 6 gusting 12 7.2